Time;durP1;ratioP1;P1;durP2;ratioP2;P2;SDS_P1;SDS_P2;PMS_P1;PMS_P2;Temp;Humidity;BMP_temperature;BMP_pressure;BME280_temperature;BME280_humidity;BME280_pressure;Samples;Min_cycle;Max_cycle;Signal;HPM_P1;HPM_P2
2023/12/27 00:00:06;;;;;;;3.10;1.10;;;;;;;7.63;66.36;98067.38;105508;1262;72204;-27
2023/12/27 00:02:35;;;;;;;1.90;1.00;;;;;;;7.52;66.78;98059.45;105341;1256;74305;-27
2023/12/27 00:05:03;;;;;;;1.20;0.80;;;;;;;7.39;67.23;98061.30;105485;1258;72629;-27
2023/12/27 00:07:31;;;;;;;2.10;0.60;;;;;;;7.31;67.75;98069.73;105408;1259;61077;-28
2023/12/27 00:17:39;;;;;;;1.60;0.80;;;;;;;8.08;65.72;98083.61;102549;1296;600949;-26
2023/12/27 00:20:08;;;;;;;2.20;0.90;;;;;;;7.97;66.08;98084.04;104787;1268;61175;-26
2023/12/27 00:22:36;;;;;;;5.10;0.90;;;;;;;7.81;66.84;98096.66;104748;1272;61190;-26
2023/12/27 00:25:04;;;;;;;1.30;0.70;;;;;;;7.58;67.73;98091.48;104769;1270;70736;-26
2023/12/27 00:27:31;;;;;;;1.50;0.90;;;;;;;7.50;68.08;98103.88;104790;1271;73191;-26
2023/12/27 00:30:01;;;;;;;4.80;1.00;;;;;;;7.35;68.27;98082.46;104746;1268;71917;-26
2023/12/27 00:32:28;;;;;;;1.50;0.90;;;;;;;7.18;67.87;98087.55;104845;1266;181470;-26
2023/12/27 00:34:56;;;;;;;2.00;0.90;;;;;;;7.39;67.34;98077.19;104866;1267;61215;-26
2023/12/27 00:37:24;;;;;;;1.60;0.90;;;;;;;7.71;66.09;98077.04;104841;1266;72241;-26
2023/12/27 00:39:51;;;;;;;1.70;1.00;;;;;;;7.71;65.80;98073.60;105020;1266;73132;-26
2023/12/27 00:42:19;;;;;;;0.90;0.70;;;;;;;7.56;66.25;98089.20;104841;1267;71474;-26
2023/12/27 00:44:49;;;;;;;2.70;1.00;;;;;;;7.35;66.68;98080.12;104911;1266;61190;-25
2023/12/27 00:47:17;;;;;;;1.90;0.90;;;;;;;7.18;67.12;98079.40;104807;1266;61129;-26
2023/12/27 00:49:44;;;;;;;1.60;1.00;;;;;;;7.06;68.02;98086.96;104848;1269;71678;-26
2023/12/27 00:52:12;;;;;;;2.40;1.10;;;;;;;6.86;69.08;98103.21;104736;1266;74293;-26
2023/12/27 00:54:40;;;;;;;0.90;0.80;;;;;;;7.11;68.97;98101.21;104667;1269;72803;-26
2023/12/27 00:57:07;;;;;;;2.90;1.10;;;;;;;7.33;68.00;98096.63;104718;1269;61420;-26
2023/12/27 00:59:35;;;;;;;4.00;0.70;;;;;;;7.28;67.48;98077.67;104750;1269;61122;-26
2023/12/27 01:02:03;;;;;;;2.00;0.90;;;;;;;7.14;68.07;98091.33;104760;1269;73045;-26
2023/12/27 01:04:32;;;;;;;1.90;0.90;;;;;;;6.87;68.65;98101.78;104840;1266;73037;-26
2023/12/27 01:07:00;;;;;;;1.00;0.70;;;;;;;6.70;68.86;98094.02;104503;1267;71398;-26
2023/12/27 01:09:28;;;;;;;0.90;0.80;;;;;;;6.57;69.17;98089.65;104837;1267;61173;-26
2023/12/27 01:11:55;;;;;;;3.00;1.00;;;;;;;6.57;69.34;98098.85;104750;1267;61059;-26
2023/12/27 01:14:23;;;;;;;3.90;1.00;;;;;;;6.90;67.93;98101.02;104742;1265;71712;-26
2023/12/27 01:24:31;;;;;;;1.30;0.70;;;;;;;6.60;68.04;98096.00;102925;1292;600866;-26
2023/12/27 01:34:38;;;;;;;1.50;0.80;;;;;;;6.76;67.64;98100.61;102701;1295;601414;-25
2023/12/27 01:37:06;;;;;;;1.90;1.30;;;;;;;6.87;66.84;98091.54;104761;1267;61203;-25
2023/12/27 01:47:18;;;;;;;2.10;1.10;;;;;;;6.44;67.94;98088.80;102737;1292;601334;-27
2023/12/27 01:49:46;;;;;;;2.60;1.00;;;;;;;6.36;67.98;98084.77;104846;1268;61187;-27
2023/12/27 01:52:14;;;;;;;2.70;1.30;;;;;;;6.33;68.29;98080.70;105016;1266;61025;-27
2023/12/27 01:54:41;;;;;;;1.70;0.90;;;;;;;6.59;67.46;98083.51;105046;1264;72232;-27
2023/12/27 01:57:09;;;;;;;3.40;0.90;;;;;;;6.80;66.62;98093.39;104862;1271;73293;-27
2023/12/27 01:59:37;;;;;;;1.60;0.70;;;;;;;6.75;66.58;98086.00;104915;1266;72706;-27
2023/12/27 02:02:04;;;;;;;1.90;1.00;;;;;;;6.63;67.02;98089.86;104967;1268;131564;-26
2023/12/27 02:04:32;;;;;;;1.70;1.00;;;;;;;6.63;67.23;98097.29;105187;1261;61189;-25
2023/12/27 02:07:00;;;;;;;4.60;1.20;;;;;;;6.54;67.66;98093.21;105037;1268;70982;-26
2023/12/27 02:09:28;;;;;;;1.90;0.70;;;;;;;6.38;68.18;98087.90;105163;1262;72063;-27
2023/12/27 02:11:55;;;;;;;1.60;1.20;;;;;;;6.45;68.43;98102.48;105218;1267;71362;-26
2023/12/27 02:14:23;;;;;;;1.80;0.80;;;;;;;6.90;67.14;98098.95;105067;1264;61244;-26
2023/12/27 02:16:51;;;;;;;2.90;1.10;;;;;;;7.02;66.08;98092.11;105093;1264;61854;-26
2023/12/27 02:19:20;;;;;;;3.90;1.40;;;;;;;6.93;66.26;98097.52;105208;1263;70817;-26
2023/12/27 02:21:49;;;;;;;2.40;1.00;;;;;;;6.74;66.44;98072.60;104890;1263;73083;-26
2023/12/27 02:24:18;;;;;;;4.10;1.40;;;;;;;6.66;66.73;98091.56;105152;1263;72635;-27
2023/12/27 02:26:46;;;;;;;3.30;0.90;;;;;;;6.61;66.71;98096.29;104892;1263;61213;-26
2023/12/27 02:29:14;;;;;;;2.70;0.80;;;;;;;6.50;67.21;98105.59;105129;1263;61080;-27
2023/12/27 02:39:37;;;;;;;1.30;0.80;;;;;;;6.82;65.42;98100.93;102614;1292;615164;-27
2023/12/27 02:42:04;;;;;;;1.90;0.80;;;;;;;6.81;65.65;98088.98;104834;1267;61381;-26
2023/12/27 02:44:31;;;;;;;1.50;1.10;;;;;;;6.65;66.12;98105.96;104859;1269;61127;-26
2023/12/27 02:47:01;;;;;;;1.90;0.80;;;;;;;6.57;66.29;98101.43;104887;1270;71195;-26
2023/12/27 02:49:28;;;;;;;2.60;0.90;;;;;;;6.42;66.75;98111.75;104919;1266;74840;-26
2023/12/27 02:51:55;;;;;;;3.10;1.10;;;;;;;6.42;67.28;98114.53;104756;1267;157811;-26
2023/12/27 02:54:22;;;;;;;1.10;0.80;;;;;;;6.31;67.95;98124.64;105040;1267;61123;-27
2023/12/27 02:56:49;;;;;;;2.20;1.10;;;;;;;6.70;66.40;98123.79;104987;1267;61200;-26
2023/12/27 02:59:17;;;;;;;3.20;1.00;;;;;;;6.89;64.86;98094.52;104978;1269;72138;-26
2023/12/27 03:05:51;;;;;;;1.90;1.10;;;;;;;6.59;65.54;98089.48;105174;1264;72771;-26
2023/12/27 03:08:18;;;;;;;3.20;1.20;;;;;;;6.42;65.50;98082.19;105177;1269;61130;-26
2023/12/27 03:10:45;;;;;;;0.70;0.60;;;;;;;6.35;66.27;98102.07;105071;1264;61179;-28
2023/12/27 03:13:12;;;;;;;1.80;0.70;;;;;;;6.17;67.21;98106.98;105210;1269;73077;-27
2023/12/27 03:15:39;;;;;;;2.50;1.10;;;;;;;6.02;67.65;98105.67;105216;1271;74332;-27
2023/12/27 03:18:06;;;;;;;1.90;0.80;;;;;;;6.17;67.39;98108.65;105213;1264;72650;-26
2023/12/27 03:20:33;;;;;;;1.40;0.90;;;;;;;6.51;65.94;98112.39;104768;1269;61132;-26
2023/12/27 03:23:00;;;;;;;1.50;0.70;;;;;;;6.62;65.47;98113.62;104871;1267;61177;-26
2023/12/27 03:25:27;;;;;;;3.50;0.80;;;;;;;6.43;65.70;98108.69;105198;1269;73104;-27
2023/12/27 03:27:53;;;;;;;1.10;0.90;;;;;;;6.29;66.08;98096.52;104840;1264;74366;-26
2023/12/27 03:30:21;;;;;;;1.40;0.80;;;;;;;6.33;66.35;98117.77;105204;1261;71550;-27
2023/12/27 03:32:48;;;;;;;2.60;1.10;;;;;;;6.21;66.86;98113.34;105128;1261;61051;-26
2023/12/27 03:35:15;;;;;;;3.20;1.10;;;;;;;6.19;67.01;98117.70;105108;1265;61063;-26
2023/12/27 03:37:44;;;;;;;1.30;0.70;;;;;;;6.12;67.27;98099.58;105193;1266;72440;-26
2023/12/27 03:40:12;;;;;;;1.10;0.90;;;;;;;6.47;66.29;98100.34;105087;1266;74203;-26
2023/12/27 03:42:38;;;;;;;1.00;0.70;;;;;;;6.76;65.04;98112.45;105131;1261;72747;-26
2023/12/27 03:45:06;;;;;;;1.80;0.80;;;;;;;6.80;64.81;98114.37;105185;1266;61128;-26
2023/12/27 03:47:33;;;;;;;1.90;0.60;;;;;;;6.72;65.01;98110.22;105157;1267;61188;-26
2023/12/27 03:50:02;;;;;;;1.40;0.60;;;;;;;6.60;65.34;98100.48;105231;1267;72732;-26
2023/12/27 03:52:30;;;;;;;4.50;0.90;;;;;;;6.47;65.92;98107.39;105210;1260;74407;-27
2023/12/27 03:54:57;;;;;;;2.50;1.10;;;;;;;6.37;66.02;98093.69;105157;1266;72845;-26
2023/12/27 03:57:24;;;;;;;0.70;0.70;;;;;;;6.32;66.42;98123.18;105275;1264;61107;-26
2023/12/27 03:59:51;;;;;;;2.20;0.80;;;;;;;6.33;66.81;98121.04;105580;1260;61199;-26
2023/12/27 04:02:18;;;;;;;2.10;0.80;;;;;;;6.56;66.03;98120.58;105610;1258;73071;-26
2023/12/27 04:04:46;;;;;;;2.70;0.90;;;;;;;6.89;64.80;98117.83;105591;1258;74432;-26
2023/12/27 04:07:14;;;;;;;1.20;0.70;;;;;;;6.96;64.58;98131.60;105637;1258;72682;-27
2023/12/27 04:09:40;;;;;;;1.40;1.00;;;;;;;6.80;64.98;98124.94;105572;1257;61076;-26
2023/12/27 04:12:08;;;;;;;1.50;0.90;;;;;;;6.67;65.41;98117.36;105580;1256;61142;-26
2023/12/27 04:14:35;;;;;;;2.60;1.20;;;;;;;6.62;65.82;98125.49;105483;1261;72898;-26
2023/12/27 04:17:02;;;;;;;3.00;0.70;;;;;;;6.45;66.38;98110.26;105497;1258;73142;-26
2023/12/27 04:19:29;;;;;;;1.30;0.90;;;;;;;6.43;66.68;98130.27;105513;1257;72569;-26
2023/12/27 04:21:56;;;;;;;2.30;0.70;;;;;;;6.31;66.79;98109.81;105436;1260;61123;-27
2023/12/27 04:24:23;;;;;;;3.30;0.90;;;;;;;6.51;66.12;98115.67;105436;1259;61166;-26
2023/12/27 04:26:50;;;;;;;2.30;1.00;;;;;;;6.83;64.92;98134.70;105313;1259;72949;-26
2023/12/27 04:29:17;;;;;;;2.90;0.90;;;;;;;6.86;64.60;98117.73;105620;1259;74827;-26
2023/12/27 04:31:44;;;;;;;1.60;0.80;;;;;;;6.67;65.33;98121.14;105666;1260;72562;-26
2023/12/27 04:34:11;;;;;;;1.30;0.90;;;;;;;6.68;64.98;98118.64;105551;1261;61106;-27
2023/12/27 04:36:38;;;;;;;2.50;1.40;;;;;;;6.43;65.67;98111.98;105594;1260;61142;-26
2023/12/27 04:39:06;;;;;;;1.70;1.00;;;;;;;6.42;65.33;98122.29;105650;1257;72861;-26
2023/12/27 04:41:34;;;;;;;2.70;0.80;;;;;;;6.28;65.54;98114.83;105610;1270;74282;-26
2023/12/27 04:44:01;;;;;;;3.70;1.30;;;;;;;6.26;65.92;98121.09;105608;1257;72639;-26
2023/12/27 04:46:28;;;;;;;1.10;0.70;;;;;;;6.13;66.30;98096.40;105270;1257;61043;-26
2023/12/27 04:48:55;;;;;;;1.60;0.90;;;;;;;6.39;65.75;98114.70;105517;1261;61170;-26
2023/12/27 04:51:22;;;;;;;3.00;0.80;;;;;;;6.58;64.84;98126.02;105633;1258;72954;-26
2023/12/27 04:53:51;;;;;;;1.50;0.80;;;;;;;6.55;64.93;98130.18;105604;1261;74445;-26
2023/12/27 04:56:18;;;;;;;3.10;1.30;;;;;;;6.43;65.40;98112.34;105430;1258;72691;-26
2023/12/27 04:58:45;;;;;;;2.30;0.90;;;;;;;6.35;64.82;98100.55;105334;1258;61148;-27
2023/12/27 05:01:12;;;;;;;2.10;0.90;;;;;;;6.31;63.96;98114.98;105338;1261;61253;-27
2023/12/27 05:03:39;;;;;;;1.20;0.90;;;;;;;6.27;65.10;98130.81;105526;1261;72780;-27
2023/12/27 05:06:10;;;;;;;1.60;0.90;;;;;;;6.22;65.57;98134.50;105564;1257;74736;-26
2023/12/27 05:08:41;;;;;;;2.40;0.90;;;;;;;6.06;66.40;98137.57;105331;1260;72752;-26
2023/12/27 05:11:15;;;;;;;0.90;0.50;;;;;;;6.38;66.02;98140.46;105105;1257;61080;-26
2023/12/27 05:13:42;;;;;;;2.40;0.80;;;;;;;6.78;64.92;98138.40;105371;1263;61083;-27
2023/12/27 05:16:16;;;;;;;2.20;0.90;;;;;;;6.70;64.74;98118.98;105533;1257;73552;-26
2023/12/27 05:18:43;;;;;;;1.60;1.00;;;;;;;6.61;65.12;98122.43;105607;1257;73313;-26
2023/12/27 05:21:11;;;;;;;3.60;1.00;;;;;;;6.51;65.40;98111.66;105524;1258;72724;-26
2023/12/27 05:23:38;;;;;;;1.80;0.80;;;;;;;6.30;66.34;98111.50;105551;1262;61286;-26
2023/12/27 05:26:05;;;;;;;1.50;0.80;;;;;;;6.20;67.11;98131.89;105564;1261;61754;-26
2023/12/27 05:28:32;;;;;;;1.20;1.00;;;;;;;6.17;67.25;98133.31;105638;1257;73610;-27
2023/12/27 05:30:59;;;;;;;2.20;1.10;;;;;;;6.02;67.65;98114.80;105618;1260;73184;-27
2023/12/27 05:33:27;;;;;;;3.30;1.30;;;;;;;6.31;66.92;98121.86;105384;1257;70359;-27
2023/12/27 05:35:54;;;;;;;2.40;1.10;;;;;;;6.28;66.75;98118.18;105467;1257;61087;-26
2023/12/27 05:38:24;;;;;;;3.00;1.10;;;;;;;6.30;66.70;98115.91;105478;1261;61170;-27
2023/12/27 05:40:51;;;;;;;2.00;0.90;;;;;;;6.13;67.11;98127.59;105574;1257;72819;-27
2023/12/27 05:43:18;;;;;;;4.80;1.00;;;;;;;6.07;67.62;98144.43;105616;1257;74127;-26
2023/12/27 05:45:44;;;;;;;1.50;0.80;;;;;;;5.97;67.26;98107.30;105634;1260;72624;-27
2023/12/27 05:48:12;;;;;;;1.20;0.70;;;;;;;5.83;66.53;98105.73;105608;1257;61046;-27
2023/12/27 05:50:39;;;;;;;1.90;0.60;;;;;;;5.67;66.82;98093.00;105652;1257;61064;-27
2023/12/27 05:53:06;;;;;;;2.00;0.70;;;;;;;5.40;67.72;98138.92;105644;1257;73058;-27
2023/12/27 05:55:33;;;;;;;1.40;0.50;;;;;;;5.57;67.24;98142.65;105664;1258;74441;-27
2023/12/27 05:58:00;;;;;;;1.10;0.40;;;;;;;5.51;66.38;98138.80;105496;1256;71700;-26
2023/12/27 06:00:26;;;;;;;0.60;0.40;;;;;;;5.37;66.33;98138.30;105304;1261;62139;-26
2023/12/27 06:02:55;;;;;;;1.30;0.50;;;;;;;5.24;65.35;98140.24;105364;1261;61092;-27
2023/12/27 06:05:23;;;;;;;0.40;0.40;;;;;;;5.10;65.97;98162.79;105532;1257;72024;-27
2023/12/27 06:07:50;;;;;;;2.50;0.70;;;;;;;5.01;67.06;98180.83;105589;1257;74203;-26
2023/12/27 06:10:17;;;;;;;0.70;0.50;;;;;;;4.92;67.90;98182.98;105668;1257;72726;-27
2023/12/27 06:12:44;;;;;;;0.30;0.30;;;;;;;4.68;68.66;98171.60;105504;1256;61057;-26
2023/12/27 06:15:12;;;;;;;0.40;0.30;;;;;;;4.77;68.53;98186.33;105442;1260;61176;-26
2023/12/27 06:17:39;;;;;;;0.40;0.30;;;;;;;4.98;67.46;98183.75;105320;1256;72994;-27
2023/12/27 06:20:08;;;;;;;0.30;0.30;;;;;;;4.95;67.53;98201.68;105383;1257;74552;-26
2023/12/27 06:22:35;;;;;;;0.20;0.20;;;;;;;4.75;67.72;98198.13;105291;1257;72359;-27
2023/12/27 06:25:03;;;;;;;1.10;0.60;;;;;;;4.59;68.17;98213.88;105428;1257;61088;-27
2023/12/27 06:27:30;;;;;;;0.20;0.20;;;;;;;4.62;68.65;98233.09;105405;1260;61801;-27
2023/12/27 06:29:57;;;;;;;0.90;0.40;;;;;;;4.47;68.66;98228.98;105601;1257;73011;-27
2023/12/27 06:32:24;;;;;;;2.70;0.40;;;;;;;4.40;68.85;98260.06;105584;1254;74359;-27
2023/12/27 06:34:51;;;;;;;0.50;0.30;;;;;;;4.79;68.20;98269.23;105614;1254;72760;-27
2023/12/27 06:37:18;;;;;;;0.30;0.30;;;;;;;4.85;67.16;98260.86;105704;1254;61042;-27
2023/12/27 06:39:45;;;;;;;0.70;0.50;;;;;;;4.80;67.78;98284.25;105589;1256;61173;-27
2023/12/27 06:42:11;;;;;;;0.80;0.40;;;;;;;4.67;68.19;98277.80;105635;1257;73034;-27
2023/12/27 06:44:38;;;;;;;0.30;0.30;;;;;;;4.51;68.88;98269.06;105584;1260;74207;-27
2023/12/27 06:47:05;;;;;;;0.30;0.30;;;;;;;4.45;69.42;98301.31;105634;1254;72521;-27
2023/12/27 06:49:32;;;;;;;0.50;0.30;;;;;;;4.22;70.70;98288.59;105538;1254;61119;-28
2023/12/27 06:51:59;;;;;;;0.60;0.40;;;;;;;4.46;70.03;98312.73;105511;1258;61059;-27
2023/12/27 06:54:26;;;;;;;0.30;0.30;;;;;;;4.64;69.30;98306.04;105620;1255;73601;-28
2023/12/27 06:56:53;;;;;;;0.30;0.30;;;;;;;4.52;69.79;98303.17;105407;1254;74384;-27
2023/12/27 06:59:20;;;;;;;0.30;0.30;;;;;;;4.62;69.57;98320.58;105447;1254;73135;-27
2023/12/27 07:01:47;;;;;;;0.60;0.40;;;;;;;4.50;70.16;98335.34;105442;1255;61026;-27
2023/12/27 07:04:14;;;;;;;0.50;0.40;;;;;;;4.38;70.73;98336.17;105430;1254;61234;-28
2023/12/27 07:06:41;;;;;;;0.40;0.30;;;;;;;4.38;70.78;98340.77;105568;1254;73768;-27
2023/12/27 07:09:09;;;;;;;0.40;0.40;;;;;;;4.29;71.15;98328.30;105651;1260;74234;-27
2023/12/27 07:11:36;;;;;;;0.80;0.30;;;;;;;4.35;70.85;98332.73;105607;1254;72718;-27
2023/12/27 07:14:03;;;;;;;1.00;0.60;;;;;;;4.36;70.41;98324.95;105436;1254;61209;-27
2023/12/27 07:16:30;;;;;;;0.70;0.50;;;;;;;4.41;70.33;98330.42;105555;1259;61066;-27
2023/12/27 07:18:57;;;;;;;0.40;0.30;;;;;;;4.34;70.16;98326.27;105627;1256;73742;-27
2023/12/27 07:21:24;;;;;;;1.40;0.80;;;;;;;4.26;70.54;98345.65;105678;1257;74352;-27
2023/12/27 07:23:51;;;;;;;0.30;0.30;;;;;;;4.32;70.43;98354.90;105671;1254;72634;-27
2023/12/27 07:26:18;;;;;;;1.00;0.50;;;;;;;4.50;70.17;98349.44;105643;1254;61053;-27
2023/12/27 07:28:45;;;;;;;1.90;0.70;;;;;;;4.88;68.94;98373.02;105630;1255;61739;-27
2023/12/27 07:31:12;;;;;;;1.50;0.40;;;;;;;4.73;69.43;98371.59;105656;1254;74359;-28
2023/12/27 07:33:39;;;;;;;0.50;0.40;;;;;;;4.56;70.33;98383.77;105552;1254;74322;-27
2023/12/27 07:36:08;;;;;;;0.80;0.50;;;;;;;4.48;71.03;98404.06;105601;1254;72528;-27
2023/12/27 07:38:35;;;;;;;2.10;0.50;;;;;;;4.20;71.96;98418.39;105570;1254;61094;-27
2023/12/27 07:41:04;;;;;;;1.70;0.50;;;;;;;4.22;72.23;98414.99;105590;1254;61127;-27
2023/12/27 07:43:31;;;;;;;0.30;0.30;;;;;;;4.58;71.43;98431.05;105653;1258;74657;-27
2023/12/27 07:45:58;;;;;;;0.30;0.30;;;;;;;4.79;70.64;98438.09;105646;1254;74352;-27
2023/12/27 07:48:25;;;;;;;1.10;0.60;;;;;;;5.08;69.51;98435.29;105597;1254;72480;-27
2023/12/27 07:50:52;;;;;;;1.50;0.70;;;;;;;4.87;69.73;98441.02;105334;1256;61203;-27
2023/12/27 07:53:19;;;;;;;2.50;0.60;;;;;;;4.73;70.50;98459.44;105534;1254;61056;-27
2023/12/27 07:55:46;;;;;;;1.70;0.60;;;;;;;4.59;70.34;98449.41;105476;1254;72030;-27
2023/12/27 07:58:13;;;;;;;0.90;0.60;;;;;;;4.63;70.16;98440.37;105454;1256;73496;-27
2023/12/27 08:00:40;;;;;;;1.00;0.40;;;;;;;4.96;69.53;98454.46;105541;1254;72606;-27
2023/12/27 08:03:10;;;;;;;2.00;0.80;;;;;;;4.84;69.32;98443.63;105450;1254;61093;-27
2023/12/27 08:05:37;;;;;;;1.20;0.50;;;;;;;4.86;69.32;98455.89;105617;1259;61195;-27
2023/12/27 08:08:04;;;;;;;0.70;0.60;;;;;;;4.84;69.14;98460.48;105546;1254;73789;-27
2023/12/27 08:10:31;;;;;;;2.10;0.60;;;;;;;4.71;69.87;98451.91;105658;1259;74156;-27
2023/12/27 08:13:00;;;;;;;0.90;0.50;;;;;;;4.69;69.96;98469.16;105646;1257;72406;-27
2023/12/27 08:15:27;;;;;;;1.20;0.60;;;;;;;4.76;69.36;98460.15;105708;1253;61762;-27
2023/12/27 08:17:54;;;;;;;1.10;0.70;;;;;;;4.99;68.40;98448.65;105812;1257;61689;-27
2023/12/27 08:20:21;;;;;;;1.50;0.70;;;;;;;5.01;68.10;98474.82;105914;1253;73873;-27
2023/12/27 08:22:52;;;;;;;1.10;0.70;;;;;;;4.99;67.59;98467.36;105802;1254;74649;-27
2023/12/27 08:25:19;;;;;;;1.70;0.70;;;;;;;4.97;67.40;98472.13;105826;1253;72551;-27
2023/12/27 08:27:46;;;;;;;3.90;0.70;;;;;;;4.85;67.09;98487.05;105701;1253;61001;-27
2023/12/27 08:30:13;;;;;;;3.00;0.90;;;;;;;4.78;67.68;98489.61;105728;1254;61165;-27
2023/12/27 08:32:41;;;;;;;2.10;0.80;;;;;;;5.08;66.96;98512.00;105632;1254;73847;-27
2023/12/27 08:35:08;;;;;;;1.20;0.60;;;;;;;4.97;67.43;98516.19;105644;1256;74778;-27
2023/12/27 08:37:35;;;;;;;1.50;0.60;;;;;;;5.11;66.93;98510.28;105852;1254;72840;-27
2023/12/27 08:40:03;;;;;;;0.80;0.50;;;;;;;4.89;67.36;98513.13;105878;1253;61034;-28
2023/12/27 08:42:30;;;;;;;1.50;0.80;;;;;;;4.79;67.95;98529.95;105630;1254;61171;-27
2023/12/27 08:44:57;;;;;;;0.50;0.50;;;;;;;5.01;67.22;98538.63;105817;1253;73726;-27
2023/12/27 08:47:24;;;;;;;1.10;0.80;;;;;;;4.79;66.99;98501.56;105772;1254;74091;-27
2023/12/27 08:49:52;;;;;;;0.90;0.50;;;;;;;4.98;67.19;98532.13;105723;1253;72682;-27
2023/12/27 08:52:19;;;;;;;0.90;0.60;;;;;;;5.00;67.03;98533.76;105570;1253;61059;-27
2023/12/27 08:54:46;;;;;;;0.80;0.50;;;;;;;4.85;67.17;98537.97;105817;1253;61160;-28
2023/12/27 08:57:13;;;;;;;0.80;0.60;;;;;;;4.92;67.63;98540.29;105757;1253;73587;-27
2023/12/27 08:59:40;;;;;;;1.20;0.80;;;;;;;5.07;66.84;98536.69;105874;1253;74155;-27
2023/12/27 09:02:07;;;;;;;1.30;0.50;;;;;;;5.05;66.41;98538.53;105816;1253;72769;-27
2023/12/27 09:04:34;;;;;;;0.90;0.60;;;;;;;4.96;66.50;98535.17;105670;1254;61055;-27
2023/12/27 09:07:01;;;;;;;1.10;0.50;;;;;;;4.90;66.47;98555.85;105727;1252;61164;-28
2023/12/27 09:09:29;;;;;;;1.30;0.60;;;;;;;4.90;66.63;98545.55;105836;1253;73515;-27
2023/12/27 09:11:56;;;;;;;2.00;0.50;;;;;;;4.68;66.36;98542.84;105679;1253;74262;-27
2023/12/27 09:14:24;;;;;;;1.00;0.60;;;;;;;4.65;66.68;98534.80;105713;1253;72704;-27
2023/12/27 09:16:51;;;;;;;1.80;0.90;;;;;;;4.60;66.77;98543.23;105603;1252;61148;-27
2023/12/27 09:19:18;;;;;;;0.50;0.50;;;;;;;4.48;65.80;98526.77;105801;1254;61142;-27
2023/12/27 09:21:45;;;;;;;1.00;0.60;;;;;;;4.42;65.92;98556.54;105665;1253;72753;-27
2023/12/27 09:24:13;;;;;;;1.70;0.60;;;;;;;4.41;66.52;98562.98;105824;1253;74310;-27
2023/12/27 09:26:42;;;;;;;1.50;0.90;;;;;;;4.77;65.13;98555.67;105571;1255;73703;-27
2023/12/27 09:29:10;;;;;;;0.50;0.50;;;;;;;4.90;64.68;98580.98;105521;1253;61189;-27
2023/12/27 09:31:41;;;;;;;1.00;0.50;;;;;;;4.77;64.87;98568.75;105723;1253;61046;-27
2023/12/27 09:34:08;;;;;;;1.00;0.60;;;;;;;4.46;65.29;98583.27;105744;1253;73770;-28
2023/12/27 09:36:37;;;;;;;0.70;0.50;;;;;;;4.81;65.11;98585.02;105655;1254;74236;-27
2023/12/27 09:39:04;;;;;;;1.50;0.80;;;;;;;4.65;64.81;98560.41;105597;1254;72752;-27
2023/12/27 09:41:32;;;;;;;0.80;0.50;;;;;;;4.49;64.61;98551.61;105590;1254;61171;-27
2023/12/27 09:43:58;;;;;;;1.10;0.80;;;;;;;4.48;64.23;98556.90;105819;1257;61119;-27
2023/12/27 09:46:26;;;;;;;1.00;0.50;;;;;;;4.82;62.41;98548.83;105699;1253;74350;-27
2023/12/27 09:48:53;;;;;;;2.00;0.60;;;;;;;5.12;61.87;98568.70;105730;1253;74133;-27
2023/12/27 09:51:23;;;;;;;1.40;0.50;;;;;;;5.49;62.46;98587.25;105832;1253;72783;-27
2023/12/27 09:53:51;;;;;;;0.50;0.50;;;;;;;5.46;62.21;98577.13;105608;1253;61055;-27
2023/12/27 09:56:18;;;;;;;1.40;0.70;;;;;;;5.39;62.39;98567.09;105798;1254;61100;-27
2023/12/27 09:58:49;;;;;;;1.10;0.70;;;;;;;5.04;62.27;98552.88;105667;1254;73823;-27
2023/12/27 10:01:16;;;;;;;1.00;0.60;;;;;;;5.04;62.47;98562.52;105661;1253;73425;-28
2023/12/27 10:03:43;;;;;;;1.20;0.70;;;;;;;5.31;61.52;98550.89;105707;1253;72521;-27
2023/12/27 10:06:33;;;;;;;0.50;0.50;;;;;;;5.58;61.36;98577.17;105475;1253;61101;-27
2023/12/27 10:09:00;;;;;;;0.60;0.50;;;;;;;5.53;60.33;98570.61;105581;1254;61139;-27
2023/12/27 10:11:27;;;;;;;0.60;0.50;;;;;;;5.52;59.83;98559.02;105561;1253;73891;-27
2023/12/27 10:13:54;;;;;;;1.40;0.70;;;;;;;5.65;59.15;98555.37;105663;1254;74408;-27
2023/12/27 10:16:21;;;;;;;1.30;0.60;;;;;;;5.92;59.10;98566.40;105779;1253;72479;-28
2023/12/27 10:18:48;;;;;;;2.40;0.60;;;;;;;5.44;59.42;98557.26;105721;1253;61052;-27
2023/12/27 10:21:16;;;;;;;1.70;0.50;;;;;;;5.53;58.89;98555.27;105686;1252;61142;-27
2023/12/27 10:23:43;;;;;;;1.20;0.80;;;;;;;5.55;58.94;98563.09;105682;1253;75259;-27
2023/12/27 10:26:10;;;;;;;1.10;0.70;;;;;;;5.47;58.76;98538.33;105779;1253;75730;-30
2023/12/27 10:28:37;;;;;;;0.90;0.60;;;;;;;5.38;58.47;98529.48;105774;1257;73057;-27
2023/12/27 10:31:05;;;;;;;2.30;0.70;;;;;;;5.24;58.89;98568.61;105529;1253;61062;-27
2023/12/27 10:33:43;;;;;;;1.10;0.70;;;;;;;5.21;60.03;98600.51;105657;1260;61483;-27
2023/12/27 10:36:10;;;;;;;0.90;0.60;;;;;;;5.41;59.99;98606.56;105590;1253;72752;-27
2023/12/27 10:38:37;;;;;;;1.10;0.60;;;;;;;5.61;58.55;98573.41;105576;1253;73416;-27
2023/12/27 10:41:05;;;;;;;1.30;0.70;;;;;;;5.29;59.03;98606.16;105732;1253;73999;-27
2023/12/27 10:43:32;;;;;;;1.50;0.60;;;;;;;4.96;60.49;98585.59;105527;1253;61224;-27
2023/12/27 10:46:04;;;;;;;1.30;0.70;;;;;;;4.83;60.97;98596.43;105552;1254;61128;-27
2023/12/27 10:48:31;;;;;;;1.20;0.70;;;;;;;4.96;61.26;98625.48;105433;1253;73898;-27
2023/12/27 10:50:58;;;;;;;1.90;0.90;;;;;;;4.86;60.91;98601.39;105610;1254;75751;-27
2023/12/27 10:53:26;;;;;;;3.00;1.10;;;;;;;4.57;61.43;98566.94;105586;1254;73083;-27
2023/12/27 10:55:53;;;;;;;2.20;0.90;;;;;;;4.50;62.36;98596.44;105569;1254;61138;-27
2023/12/27 10:58:22;;;;;;;1.40;0.70;;;;;;;4.41;62.61;98611.08;105600;1257;61279;-27
2023/12/27 11:00:48;;;;;;;2.20;1.20;;;;;;;4.42;62.85;98603.15;105542;1257;71833;-27
2023/12/27 11:03:16;;;;;;;0.90;0.70;;;;;;;4.37;63.80;98632.14;105392;1253;73615;-27
2023/12/27 11:05:43;;;;;;;1.90;0.80;;;;;;;4.49;63.97;98641.05;105494;1253;72805;-27
2023/12/27 11:08:11;;;;;;;3.00;1.10;;;;;;;4.33;64.19;98625.51;105646;1253;61040;-27
2023/12/27 11:10:38;;;;;;;0.90;0.70;;;;;;;4.34;63.82;98622.34;105626;1254;61114;-27
2023/12/27 11:13:06;;;;;;;1.00;0.80;;;;;;;4.33;64.55;98653.87;105563;1253;73857;-27
2023/12/27 11:15:34;;;;;;;1.70;1.00;;;;;;;4.64;63.90;98645.95;105609;1253;74324;-27
2023/12/27 11:18:01;;;;;;;2.10;0.70;;;;;;;4.88;63.16;98646.67;105514;1253;72682;-27
2023/12/27 11:20:31;;;;;;;4.00;1.70;;;;;;;4.97;62.84;98651.73;105584;1253;61159;-27
2023/12/27 11:22:58;;;;;;;2.60;0.90;;;;;;;4.92;62.89;98653.61;105695;1256;61119;-27
2023/12/27 11:25:26;;;;;;;3.20;1.10;;;;;;;4.80;62.91;98634.05;105477;1253;73790;-27
2023/12/27 11:27:53;;;;;;;0.90;0.70;;;;;;;4.62;62.87;98651.05;105661;1254;74661;-27
2023/12/27 11:30:23;;;;;;;3.90;1.10;;;;;;;4.60;62.85;98648.27;105947;1253;72528;-27
2023/12/27 11:32:50;;;;;;;2.50;0.80;;;;;;;4.63;62.89;98657.69;105663;1253;61139;-30
2023/12/27 11:35:24;;;;;;;0.90;0.70;;;;;;;4.48;63.02;98649.70;105842;1253;61006;-27
2023/12/27 11:37:52;;;;;;;5.30;0.60;;;;;;;4.56;63.03;98667.23;105917;1253;73229;-27
2023/12/27 11:40:35;;;;;;;4.40;0.90;;;;;;;4.49;62.94;98659.75;105711;1253;74688;-27
2023/12/27 11:43:03;;;;;;;1.10;0.80;;;;;;;4.35;62.44;98621.41;105528;1253;72316;-27
2023/12/27 11:46:03;;;;;;;1.90;1.10;;;;;;;4.32;63.14;98672.69;105796;1253;60998;-27
2023/12/27 11:48:35;;;;;;;2.80;0.80;;;;;;;4.33;62.99;98658.86;105769;1254;61069;-27
2023/12/27 11:51:36;;;;;;;3.20;1.20;;;;;;;4.35;62.99;98663.70;105598;1261;73803;-27
2023/12/27 11:54:05;;;;;;;1.90;0.90;;;;;;;4.25;62.78;98660.56;105622;1257;74399;-27
2023/12/27 11:56:34;;;;;;;0.80;0.60;;;;;;;4.19;62.92;98672.27;105587;1253;72331;-27
2023/12/27 11:59:06;;;;;;;0.80;0.70;;;;;;;4.31;63.04;98691.13;105488;1253;61097;-27
2023/12/27 12:01:35;;;;;;;1.20;0.70;;;;;;;4.25;63.30;98673.77;105734;1255;61160;-27
2023/12/27 12:04:14;;;;;;;1.30;0.80;;;;;;;4.28;62.71;98682.20;105435;1253;75112;-27
2023/12/27 12:06:47;;;;;;;3.00;0.90;;;;;;;4.18;63.24;98704.95;105590;1253;75332;-27
2023/12/27 12:09:14;;;;;;;2.80;0.90;;;;;;;4.17;63.80;98711.56;105574;1256;71439;-27
2023/12/27 12:11:44;;;;;;;0.80;0.60;;;;;;;4.37;63.33;98703.62;105565;1252;61060;-27
2023/12/27 12:14:11;;;;;;;2.60;1.10;;;;;;;4.84;61.78;98710.06;105645;1255;61156;-27
2023/12/27 12:16:39;;;;;;;5.50;0.80;;;;;;;4.80;61.33;98708.26;105597;1253;73782;-28
2023/12/27 12:19:08;;;;;;;1.80;0.90;;;;;;;4.64;61.93;98705.94;105651;1253;73671;-27